SCF weather

Scottsdale Airport
Scottsdale, Arizona, United States

Public forecast

Using degrees Fahrenheit for public forecast. Weather courtesy of forecast.io.

METAR (pilot weather report)

Retrieved 2019/07/23 18:53 UTC (8 minutes ago):

KSDL 231853Z VRB05KT 10SM CLR 37/14 A3001 RMK AO2 SLP134 T03720139

TAF (pilot weather forecast)

Retrieved 2019/07/23 18:36 UTC (25 minutes ago):

TAF KSDL 231732Z 2318/2418 VRB05KT P6SM SCT140 OVC200 FM232100 16008KT P6SM SCT080 SCT140 BKN250 FM240300 06015G25KT P6SM BKN080 PROB30 2403/2406 6SM -TSRA BLDU BKN080CB FM240600 10006KT P6SM -SHRA OVC100